Time;durP1;ratioP1;P1;durP2;ratioP2;P2;SDS_P1;SDS_P2;PMS_P1;PMS_P2;Temp;Humidity;BMP_temperature;BMP_pressure;BME280_temperature;BME280_humidity;BME280_pressure;Samples;Min_cycle;Max_cycle;Signal;HPM_P1;HPM_P2
2024/03/14 00:02:25;;;;;;;0.30;0.20;;;12.20;99.90;;;;;;5085375;28;20625;-76
2024/03/14 00:04:51;;;;;;;0.30;0.20;;;12.10;99.90;;;;;;5084406;28;20447;-78
2024/03/14 00:07:17;;;;;;;0.30;0.30;;;12.10;99.90;;;;;;5083849;28;20885;-78
2024/03/14 00:09:43;;;;;;;0.30;0.20;;;12.10;99.90;;;;;;5085808;28;20429;-79
2024/03/14 00:12:10;;;;;;;0.30;0.20;;;12.10;99.90;;;;;;5084971;28;20164;-79
2024/03/14 00:14:38;;;;;;;2.83;2.63;;;12.10;99.90;;;;;;5085575;28;20998;-76
2024/03/14 00:17:04;;;;;;;0.30;0.20;;;12.10;99.90;;;;;;5083981;28;20459;-76
2024/03/14 00:19:30;;;;;;;0.30;0.20;;;12.10;99.90;;;;;;5084902;28;20909;-76
2024/03/14 00:21:56;;;;;;;0.30;0.20;;;12.10;99.90;;;;;;5085682;28;20474;-79
2024/03/14 00:24:22;;;;;;;0.30;0.20;;;12.10;99.90;;;;;;5085193;28;20191;-76
2024/03/14 00:26:48;;;;;;;0.30;0.20;;;12.10;99.90;;;;;;5085393;28;20985;-76
2024/03/14 00:29:13;;;;;;;0.97;0.87;;;12.10;99.90;;;;;;5085480;28;20292;-76
2024/03/14 00:31:39;;;;;;;0.30;0.20;;;12.00;99.90;;;;;;5085265;28;20616;-76
2024/03/14 00:34:08;;;;;;;0.30;0.20;;;12.00;99.90;;;;;;5090899;28;20336;-76
2024/03/14 00:36:37;;;;;;;0.30;0.20;;;12.00;99.90;;;;;;5091963;28;20963;-76
2024/03/14 00:39:06;;;;;;;0.30;0.20;;;12.00;99.90;;;;;;5090903;28;20581;-78
2024/03/14 00:41:35;;;;;;;0.30;0.20;;;12.00;99.90;;;;;;5092186;28;20408;-76
2024/03/14 00:44:01;;;;;;;0.30;0.20;;;12.00;99.90;;;;;;5091920;28;20533;-79
2024/03/14 00:46:28;;;;;;;1.70;1.60;;;11.90;99.90;;;;;;5089628;28;21040;-77
2024/03/14 00:48:54;;;;;;;0.30;0.20;;;11.90;99.90;;;;;;5090082;28;20998;-76
2024/03/14 00:51:20;;;;;;;0.57;0.57;;;11.90;99.90;;;;;;5091973;28;20421;-78
2024/03/14 00:53:45;;;;;;;0.40;0.40;;;11.80;99.90;;;;;;5092232;28;20431;-79
2024/03/14 00:56:11;;;;;;;0.30;0.30;;;11.80;99.90;;;;;;5091957;28;20176;-79
2024/03/14 00:58:38;;;;;;;0.30;0.20;;;11.80;99.90;;;;;;5091778;28;20215;-76
2024/03/14 01:01:04;;;;;;;1.43;1.43;;;11.80;99.90;;;;;;5090391;28;20429;-76
2024/03/14 01:03:32;;;;;;;0.67;0.63;;;11.80;99.90;;;;;;5092165;28;20599;-76
2024/03/14 01:05:58;;;;;;;0.30;0.20;;;11.70;99.90;;;;;;5091676;28;20467;-76
2024/03/14 01:08:24;;;;;;;0.30;0.20;;;11.70;99.90;;;;;;5091907;28;20785;-79
2024/03/14 01:10:50;;;;;;;0.30;0.20;;;11.70;99.90;;;;;;5091911;28;20486;-79
2024/03/14 01:13:15;;;;;;;0.40;0.40;;;11.70;99.90;;;;;;5090009;28;20455;-79
2024/03/14 01:15:41;;;;;;;0.30;0.20;;;11.70;99.90;;;;;;5091192;28;20478;-77
2024/03/14 01:18:07;;;;;;;0.60;0.60;;;11.70;99.90;;;;;;5091243;28;20192;-79
2024/03/14 01:20:33;;;;;;;0.30;0.20;;;11.70;99.90;;;;;;5091914;28;20222;-79
2024/03/14 01:22:59;;;;;;;0.30;0.20;;;11.70;99.90;;;;;;5090157;28;20420;-81
2024/03/14 01:25:24;;;;;;;0.30;0.20;;;11.70;99.90;;;;;;5091943;28;20630;-78
2024/03/14 01:27:50;;;;;;;0.30;0.20;;;11.70;99.90;;;;;;5091668;28;20204;-76
2024/03/14 01:30:16;;;;;;;0.40;0.37;;;11.70;99.90;;;;;;5091826;28;20227;-78
2024/03/14 01:32:42;;;;;;;0.30;0.20;;;11.60;99.90;;;;;;5091413;28;20416;-79
2024/03/14 01:35:08;;;;;;;0.30;0.20;;;11.60;99.90;;;;;;5090383;28;20188;-79
2024/03/14 01:37:34;;;;;;;0.30;0.30;;;11.60;99.90;;;;;;5091105;28;20412;-81
2024/03/14 01:40:01;;;;;;;0.30;0.20;;;11.60;99.90;;;;;;5091705;28;20427;-78
2024/03/14 01:42:28;;;;;;;0.30;0.20;;;11.60;99.90;;;;;;5089740;28;20890;-76
2024/03/14 01:44:56;;;;;;;0.30;0.20;;;11.60;99.90;;;;;;5087124;28;20780;-76
2024/03/14 01:47:23;;;;;;;0.30;0.20;;;11.50;99.90;;;;;;5087846;28;20556;-77
2024/03/14 01:49:52;;;;;;;0.30;0.20;;;11.50;99.90;;;;;;5088268;28;20431;-79
2024/03/14 01:52:18;;;;;;;0.30;0.20;;;11.50;99.90;;;;;;5086987;28;20176;-79
2024/03/14 01:54:44;;;;;;;0.30;0.20;;;11.50;99.90;;;;;;5087170;28;20199;-78
2024/03/14 01:57:11;;;;;;;0.50;0.50;;;11.50;99.90;;;;;;5088044;28;20172;-80
2024/03/14 01:59:37;;;;;;;0.30;0.20;;;11.50;99.90;;;;;;5087923;28;20230;-78
2024/03/14 02:02:03;;;;;;;0.30;0.20;;;11.50;99.90;;;;;;5086311;28;20426;-80
2024/03/14 02:04:52;;;;;;;0.30;0.20;;;11.40;99.90;;;;;;5087831;28;20793;-79
2024/03/14 02:07:23;;;;;;;0.30;0.20;;;11.40;99.90;;;;;;5086027;28;20472;-76
2024/03/14 02:09:48;;;;;;;0.30;0.20;;;11.40;99.90;;;;;;5088019;28;20784;-78
2024/03/14 02:12:15;;;;;;;0.40;0.40;;;11.40;99.90;;;;;;5087536;28;20246;-80
2024/03/14 02:14:41;;;;;;;0.30;0.20;;;11.40;99.90;;;;;;5087578;28;20505;-80
2024/03/14 02:17:06;;;;;;;0.30;0.20;;;11.40;99.90;;;;;;5085872;28;20180;-78
2024/03/14 02:19:32;;;;;;;0.30;0.20;;;11.40;99.90;;;;;;5086343;28;20245;-78
2024/03/14 02:22:00;;;;;;;0.30;0.20;;;11.40;99.90;;;;;;5085988;28;20447;-80
2024/03/14 02:24:26;;;;;;;0.30;0.20;;;11.40;99.90;;;;;;5086067;28;20441;-81
2024/03/14 02:26:52;;;;;;;0.30;0.20;;;11.40;99.90;;;;;;5087420;28;20208;-78
2024/03/14 02:29:18;;;;;;;2.00;1.77;;;11.40;99.90;;;;;;5086197;28;20494;-78
2024/03/14 02:31:43;;;;;;;0.30;0.20;;;11.40;99.90;;;;;;5085879;28;20232;-78
2024/03/14 02:34:09;;;;;;;0.30;0.20;;;11.40;99.90;;;;;;5085938;28;20591;-79
2024/03/14 02:36:36;;;;;;;3.83;3.73;;;11.40;99.90;;;;;;5085610;28;20172;-76
2024/03/14 02:39:02;;;;;;;0.30;0.20;;;11.30;99.90;;;;;;5087345;28;20511;-78
2024/03/14 02:41:30;;;;;;;0.30;0.20;;;11.30;99.90;;;;;;5087133;28;20420;-77
2024/03/14 02:43:58;;;;;;;0.30;0.20;;;11.30;99.90;;;;;;5085848;28;20919;-76
2024/03/14 02:46:25;;;;;;;0.30;0.20;;;11.30;99.90;;;;;;5085533;28;21028;-79
2024/03/14 02:48:52;;;;;;;0.30;0.20;;;11.30;99.90;;;;;;5087082;28;20329;-76
2024/03/14 02:51:19;;;;;;;0.30;0.20;;;11.30;99.90;;;;;;5085763;28;20432;-76
2024/03/14 02:53:46;;;;;;;0.30;0.20;;;11.30;99.90;;;;;;5086545;28;20429;-78
2024/03/14 02:56:12;;;;;;;0.30;0.20;;;11.20;99.90;;;;;;5084402;28;20961;-77
2024/03/14 02:58:38;;;;;;;0.30;0.20;;;11.20;99.90;;;;;;5086816;28;20192;-78
2024/03/14 03:01:08;;;;;;;0.30;0.20;;;11.30;99.90;;;;;;5086744;28;20518;-76
2024/03/14 03:03:37;;;;;;;0.30;0.20;;;11.20;99.90;;;;;;5085660;28;20660;-77
2024/03/14 03:06:05;;;;;;;0.30;0.20;;;11.30;99.90;;;;;;5085160;28;20453;-76
2024/03/14 03:08:31;;;;;;;1.53;1.43;;;11.20;99.90;;;;;;5085134;28;20448;-79
2024/03/14 03:10:57;;;;;;;0.30;0.20;;;11.20;99.90;;;;;;5086624;28;20416;-76
2024/03/14 03:13:23;;;;;;;0.30;0.20;;;11.20;99.90;;;;;;5084873;28;20204;-76
2024/03/14 03:15:49;;;;;;;0.30;0.20;;;11.20;99.90;;;;;;5085105;28;20236;-76
2024/03/14 03:18:15;;;;;;;1.90;1.80;;;11.20;99.90;;;;;;5085119;28;20265;-76
2024/03/14 03:20:40;;;;;;;0.30;0.20;;;11.20;99.90;;;;;;5086151;28;20176;-76
2024/03/14 03:23:06;;;;;;;0.30;0.20;;;11.20;99.90;;;;;;5084904;28;20802;-76
2024/03/14 03:25:35;;;;;;;0.83;0.83;;;11.20;99.90;;;;;;5086165;28;20200;-78
2024/03/14 03:28:10;;;;;;;0.40;0.30;;;11.20;99.90;;;;;;5086250;28;20230;-80
2024/03/14 03:30:37;;;;;;;0.30;0.20;;;11.20;99.90;;;;;;5086679;28;20432;-77
2024/03/14 03:33:06;;;;;;;0.30;0.20;;;11.20;99.90;;;;;;5085263;28;20441;-79
2024/03/14 03:35:33;;;;;;;0.30;0.20;;;11.20;99.90;;;;;;5084724;28;20449;-77
2024/03/14 03:38:00;;;;;;;1.52;1.42;;;11.20;99.90;;;;;;5085813;28;20439;-77
2024/03/14 03:40:30;;;;;;;0.30;0.20;;;11.30;99.90;;;;;;5084764;28;20184;-80
2024/03/14 03:42:55;;;;;;;0.30;0.20;;;11.20;99.90;;;;;;5085905;28;20700;-77
2024/03/14 03:45:21;;;;;;;0.30;0.20;;;11.30;99.90;;;;;;5085781;28;20184;-80
2024/03/14 03:47:47;;;;;;;0.40;0.40;;;11.20;99.90;;;;;;5085425;28;20719;-80
2024/03/14 03:50:12;;;;;;;0.30;0.20;;;11.20;99.90;;;;;;5084730;28;20192;-80
2024/03/14 03:52:39;;;;;;;0.30;0.20;;;11.20;99.90;;;;;;5084345;28;20196;-77
2024/03/14 03:55:06;;;;;;;0.30;0.20;;;11.20;99.90;;;;;;5083804;28;20666;-77
2024/03/14 03:57:32;;;;;;;0.30;0.20;;;11.20;99.90;;;;;;5083908;28;20770;-77
2024/03/14 03:59:59;;;;;;;0.30;0.20;;;11.30;99.90;;;;;;5085817;28;20181;-78
2024/03/14 04:02:26;;;;;;;0.30;0.20;;;11.40;99.90;;;;;;5085721;28;20169;-77
2024/03/14 04:04:57;;;;;;;0.30;0.20;;;11.40;99.90;;;;;;5085689;28;20421;-77
2024/03/14 04:07:26;;;;;;;0.30;0.20;;;11.50;99.90;;;;;;5083142;28;20553;-78
2024/03/14 04:09:52;;;;;;;0.30;0.20;;;11.60;99.90;;;;;;5084352;28;20687;-77
2024/03/14 04:12:18;;;;;;;0.30;0.20;;;11.60;99.90;;;;;;5085415;28;20411;-78
2024/03/14 04:14:43;;;;;;;0.30;0.20;;;11.70;99.90;;;;;;5085456;28;20973;-76
2024/03/14 04:17:13;;;;;;;0.30;0.20;;;11.70;99.90;;;;;;5084893;28;20423;-76
2024/03/14 04:19:45;;;;;;;0.30;0.20;;;11.70;99.90;;;;;;5085385;28;20245;-78
2024/03/14 04:22:11;;;;;;;0.30;0.20;;;11.80;99.90;;;;;;5085246;28;20770;-78
2024/03/14 04:24:37;;;;;;;0.30;0.20;;;11.80;99.90;;;;;;5085800;28;20515;-76
2024/03/14 04:27:06;;;;;;;0.30;0.20;;;11.90;99.90;;;;;;5083964;28;20476;-77
2024/03/14 04:29:32;;;;;;;0.80;0.77;;;11.90;99.90;;;;;;5085625;28;20652;-79
2024/03/14 04:31:58;;;;;;;0.60;0.60;;;11.90;99.90;;;;;;5085313;28;20401;-77
2024/03/14 04:34:23;;;;;;;0.30;0.20;;;11.90;99.90;;;;;;5085337;28;20702;-78
2024/03/14 04:36:52;;;;;;;0.30;0.20;;;11.90;99.90;;;;;;5085414;28;20691;-77
2024/03/14 04:39:23;;;;;;;0.30;0.20;;;11.90;99.90;;;;;;5083829;28;20201;-76
2024/03/14 04:41:52;;;;;;;0.30;0.20;;;11.90;99.90;;;;;;5085208;28;20746;-79
2024/03/14 04:44:19;;;;;;;0.30;0.20;;;11.90;99.90;;;;;;5084073;28;20448;-78
2024/03/14 04:46:44;;;;;;;0.30;0.20;;;11.90;99.90;;;;;;5083306;28;20464;-76
2024/03/14 04:49:11;;;;;;;0.30;0.20;;;12.00;99.90;;;;;;5083679;28;20444;-78
2024/03/14 04:51:37;;;;;;;0.30;0.20;;;12.00;99.90;;;;;;5083791;28;20477;-78
2024/03/14 04:54:03;;;;;;;0.30;0.20;;;12.00;99.90;;;;;;5084311;28;20497;-76
2024/03/14 04:56:32;;;;;;;0.30;0.20;;;12.00;99.90;;;;;;5083725;28;21133;-78
2024/03/14 04:58:58;;;;;;;0.30;0.20;;;12.00;99.90;;;;;;5084909;28;20201;-76
2024/03/14 05:01:25;;;;;;;0.30;0.20;;;12.00;99.90;;;;;;5085164;28;20637;-76
2024/03/14 05:03:51;;;;;;;0.30;0.20;;;12.00;99.90;;;;;;5085078;28;20287;-79
2024/03/14 05:06:17;;;;;;;0.30;0.20;;;12.10;99.90;;;;;;5085028;28;20475;-78
2024/03/14 05:08:43;;;;;;;0.30;0.20;;;12.10;99.90;;;;;;5084417;28;20200;-79
2024/03/14 05:11:09;;;;;;;0.30;0.20;;;12.00;99.90;;;;;;5083305;28;20220;-81
2024/03/14 05:13:34;;;;;;;0.30;0.20;;;12.10;99.90;;;;;;5084736;28;20261;-78
2024/03/14 05:16:00;;;;;;;0.30;0.20;;;12.10;99.90;;;;;;5082455;28;20503;-78
2024/03/14 05:18:26;;;;;;;0.30;0.20;;;12.10;99.90;;;;;;5084706;28;20208;-79
2024/03/14 05:20:53;;;;;;;0.30;0.20;;;12.10;99.90;;;;;;5088398;28;20304;-77
2024/03/14 05:23:21;;;;;;;0.30;0.20;;;12.10;99.90;;;;;;5088202;28;20769;-79
2024/03/14 05:25:47;;;;;;;0.30;0.30;;;12.10;99.90;;;;;;5088158;28;20417;-79
2024/03/14 05:28:16;;;;;;;0.30;0.20;;;12.10;99.90;;;;;;5088222;28;20429;-77
2024/03/14 05:30:42;;;;;;;0.30;0.20;;;12.10;99.90;;;;;;5087470;28;20525;-79
2024/03/14 05:33:08;;;;;;;0.47;0.47;;;12.10;99.90;;;;;;5087085;28;20460;-79
2024/03/14 05:35:34;;;;;;;0.30;0.20;;;12.10;99.90;;;;;;5084811;28;20473;-77
2024/03/14 05:38:00;;;;;;;0.30;0.20;;;12.10;99.90;;;;;;5087974;28;20428;-77
2024/03/14 05:40:26;;;;;;;0.60;0.60;;;12.10;99.90;;;;;;5087523;28;20177;-79
2024/03/14 05:42:55;;;;;;;0.30;0.20;;;12.10;99.90;;;;;;5087833;28;20424;-79
2024/03/14 05:45:21;;;;;;;0.30;0.20;;;12.10;99.90;;;;;;5086830;28;20915;-79
2024/03/14 05:47:48;;;;;;;0.30;0.20;;;12.10;99.90;;;;;;5085546;28;20518;-79
2024/03/14 05:50:15;;;;;;;0.30;0.20;;;12.00;99.90;;;;;;5086113;28;20203;-79
2024/03/14 05:52:41;;;;;;;0.30;0.20;;;12.00;99.90;;;;;;5087128;28;20416;-79
2024/03/14 05:55:08;;;;;;;0.30;0.20;;;12.00;99.90;;;;;;5088677;28;20424;-77
2024/03/14 05:57:36;;;;;;;0.30;0.20;;;12.00;99.90;;;;;;5085670;28;20241;-78
2024/03/14 06:00:03;;;;;;;0.30;0.20;;;12.00;99.90;;;;;;5086622;28;20516;-77
2024/03/14 06:02:29;;;;;;;0.30;0.20;;;11.90;99.90;;;;;;5087605;28;20432;-78
2024/03/14 06:04:55;;;;;;;0.30;0.20;;;11.80;99.90;;;;;;5087566;28;20429;-78
2024/03/14 06:07:20;;;;;;;3.43;2.43;;;11.70;99.90;;;;;;5086870;28;20210;-77
2024/03/14 06:09:47;;;;;;;1.63;1.53;;;11.60;99.90;;;;;;5084486;28;20196;-79
2024/03/14 06:12:13;;;;;;;0.30;0.20;;;11.50;99.90;;;;;;5084033;28;20179;-77
2024/03/14 06:14:41;;;;;;;0.30;0.20;;;11.50;99.90;;;;;;5084739;28;20460;-78
2024/03/14 06:17:07;;;;;;;0.30;0.20;;;11.40;99.90;;;;;;5084342;28;20176;-77
2024/03/14 06:19:33;;;;;;;0.30;0.20;;;11.40;99.90;;;;;;5083904;28;21044;-79
2024/03/14 06:21:58;;;;;;;0.30;0.20;;;11.40;99.90;;;;;;5084029;28;20168;-79
2024/03/14 06:24:24;;;;;;;0.30;0.20;;;11.40;99.90;;;;;;5085577;28;20196;-79
2024/03/14 06:26:50;;;;;;;0.30;0.20;;;11.30;99.90;;;;;;5086390;28;20580;-77
2024/03/14 06:29:16;;;;;;;0.30;0.30;;;11.20;99.90;;;;;;5086756;28;20283;-80
2024/03/14 06:31:41;;;;;;;0.30;0.20;;;11.20;99.90;;;;;;5086627;28;20606;-80
2024/03/14 06:34:08;;;;;;;0.30;0.20;;;11.20;99.90;;;;;;5077943;28;20192;-79
2024/03/14 06:36:35;;;;;;;0.40;0.40;;;11.10;99.90;;;;;;5074297;28;20177;-80
2024/03/14 06:39:06;;;;;;;1.75;1.65;;;11.20;99.90;;;;;;5073915;28;20509;-80
2024/03/14 06:41:33;;;;;;;1.65;1.55;;;11.20;99.90;;;;;;5072659;28;20659;-80
2024/03/14 06:43:59;;;;;;;0.30;0.20;;;11.10;99.90;;;;;;5069173;28;20296;-79
2024/03/14 06:46:26;;;;;;;0.30;0.30;;;11.10;99.90;;;;;;5082808;28;20874;-78
2024/03/14 06:48:55;;;;;;;0.30;0.30;;;11.20;99.90;;;;;;5073583;28;20437;-81
2024/03/14 06:51:22;;;;;;;0.30;0.20;;;11.30;99.90;;;;;;5075949;28;20525;-81
2024/03/14 06:53:48;;;;;;;0.30;0.20;;;11.40;99.90;;;;;;5083362;28;20432;-80
2024/03/14 06:56:15;;;;;;;0.30;0.30;;;11.40;99.90;;;;;;5078536;28;20440;-77
2024/03/14 06:58:40;;;;;;;0.30;0.20;;;11.50;99.90;;;;;;5073885;28;20435;-82
2024/03/14 07:01:08;;;;;;;0.30;0.20;;;11.50;99.90;;;;;;5078137;28;20449;-82
2024/03/14 07:03:34;;;;;;;0.30;0.20;;;11.60;99.90;;;;;;5077151;28;20227;-78
2024/03/14 07:06:00;;;;;;;0.30;0.20;;;11.60;99.90;;;;;;5073616;28;20605;-78
2024/03/14 07:08:26;;;;;;;4.87;2.60;;;11.70;99.90;;;;;;5067550;28;20963;-82
2024/03/14 07:10:55;;;;;;;0.50;0.50;;;11.70;99.90;;;;;;5074756;28;20180;-80
2024/03/14 07:13:21;;;;;;;0.30;0.20;;;11.80;99.90;;;;;;5074330;28;20487;-82
2024/03/14 07:15:47;;;;;;;1.60;1.60;;;11.70;99.90;;;;;;5075656;28;21199;-76
2024/03/14 07:18:16;;;;;;;0.30;0.30;;;11.70;99.90;;;;;;5077905;28;20468;-76
2024/03/14 07:20:44;;;;;;;0.30;0.20;;;11.70;99.90;;;;;;5072438;28;20433;-75
2024/03/14 07:23:10;;;;;;;0.30;0.20;;;11.60;99.90;;;;;;5073476;28;20467;-77
2024/03/14 07:25:36;;;;;;;0.30;0.20;;;11.60;99.90;;;;;;5072332;28;21247;-76
2024/03/14 07:28:03;;;;;;;1.13;1.13;;;11.50;99.90;;;;;;5062883;28;20228;-75
2024/03/14 07:30:30;;;;;;;0.40;0.40;;;11.50;99.90;;;;;;5073220;28;20752;-75
2024/03/14 07:32:56;;;;;;;0.90;0.90;;;11.50;99.90;;;;;;5090304;28;20453;-75
2024/03/14 07:35:24;;;;;;;3.00;2.70;;;11.50;99.90;;;;;;5066123;28;20421;-74
2024/03/14 07:38:00;;;;;;;0.57;0.53;;;11.60;99.90;;;;;;5077437;28;20456;-82
2024/03/14 07:40:50;;;;;;;0.30;0.20;;;11.70;99.90;;;;;;5080529;28;20499;-83
2024/03/14 07:43:17;;;;;;;1.03;1.03;;;11.70;99.90;;;;;;5057122;28;20536;-73
2024/03/14 07:46:10;;;;;;;1.27;1.27;;;11.80;99.90;;;;;;5066131;28;20422;-82
2024/03/14 07:48:41;;;;;;;1.03;1.03;;;11.80;99.90;;;;;;5058627;28;20460;-74
2024/03/14 07:51:13;;;;;;;0.30;0.20;;;11.80;99.90;;;;;;5061027;28;20490;-72
2024/03/14 07:53:47;;;;;;;0.30;0.20;;;11.80;99.90;;;;;;5077102;28;20559;-81
2024/03/14 07:56:21;;;;;;;0.30;0.20;;;11.80;99.90;;;;;;5081616;28;20440;-83
2024/03/14 07:58:47;;;;;;;0.30;0.20;;;11.90;99.90;;;;;;5073849;28;20446;-75
2024/03/14 08:01:19;;;;;;;0.30;0.20;;;12.00;99.90;;;;;;5063409;28;20429;-73
2024/03/14 08:03:58;;;;;;;0.30;0.20;;;12.00;99.90;;;;;;5079373;28;20204;-83
2024/03/14 08:06:24;;;;;;;0.30;0.20;;;12.00;99.90;;;;;;5077832;28;20483;-74
2024/03/14 08:08:53;;;;;;;0.53;0.53;;;12.20;99.90;;;;;;5079328;28;20433;-84
2024/03/14 08:11:22;;;;;;;0.30;0.20;;;12.30;99.90;;;;;;5070058;28;20495;-82
2024/03/14 08:13:51;;;;;;;0.30;0.20;;;12.40;99.90;;;;;;5074803;28;20445;-74
2024/03/14 08:16:23;;;;;;;0.30;0.20;;;12.40;99.90;;;;;;5071729;28;20435;-74
2024/03/14 08:18:51;;;;;;;1.20;1.10;;;12.30;99.90;;;;;;5076909;28;21022;-73
2024/03/14 08:21:22;;;;;;;0.30;0.20;;;12.30;99.90;;;;;;5080065;28;20461;-74
2024/03/14 08:23:49;;;;;;;0.30;0.20;;;12.40;99.90;;;;;;5072956;28;20478;-75
2024/03/14 08:26:18;;;;;;;1.03;1.03;;;12.50;99.90;;;;;;5072605;28;20482;-83
2024/03/14 08:28:47;;;;;;;0.30;0.20;;;12.60;99.90;;;;;;5056080;28;20495;-75
2024/03/14 08:31:16;;;;;;;0.30;0.30;;;12.70;99.90;;;;;;5055234;28;20623;-84
2024/03/14 08:33:46;;;;;;;2.53;2.10;;;12.80;99.90;;;;;;5054643;28;21002;-73
2024/03/14 08:36:13;;;;;;;0.30;0.30;;;12.90;99.90;;;;;;5066637;28;20416;-73
2024/03/14 08:38:48;;;;;;;0.30;0.20;;;13.00;99.90;;;;;;5067971;28;20994;-81
2024/03/14 08:41:18;;;;;;;1.53;1.43;;;13.10;99.90;;;;;;5067544;28;20424;-82
2024/03/14 08:43:44;;;;;;;0.30;0.20;;;13.20;99.90;;;;;;5066953;28;21366;-81
2024/03/14 08:46:10;;;;;;;0.30;0.20;;;13.40;99.90;;;;;;5065632;28;20551;-81
2024/03/14 08:48:35;;;;;;;0.30;0.30;;;13.60;99.90;;;;;;5067254;28;20555;-80
2024/03/14 08:51:01;;;;;;;1.90;1.80;;;13.70;99.90;;;;;;5071467;28;20992;-80
2024/03/14 08:53:37;;;;;;;0.30;0.30;;;13.80;99.90;;;;;;5072706;28;20192;-76
2024/03/14 08:56:07;;;;;;;0.73;0.73;;;13.80;99.90;;;;;;5075177;28;20241;-76
2024/03/14 08:58:33;;;;;;;1.10;0.60;;;14.00;99.90;;;;;;5077958;28;20444;-76
2024/03/14 09:00:59;;;;;;;0.60;0.60;;;14.20;99.90;;;;;;5082546;28;20409;-81
2024/03/14 09:03:27;;;;;;;0.30;0.20;;;14.40;99.90;;;;;;5081740;28;20472;-81
2024/03/14 09:05:53;;;;;;;1.67;1.03;;;14.70;99.90;;;;;;5077670;28;20424;-75
2024/03/14 09:08:24;;;;;;;0.30;0.20;;;14.80;99.90;;;;;;5077109;28;20460;-81
2024/03/14 09:10:53;;;;;;;0.30;0.20;;;15.00;99.90;;;;;;5076290;28;20239;-76
2024/03/14 09:13:19;;;;;;;2.87;0.97;;;15.10;99.90;;;;;;5077229;28;20460;-74
2024/03/14 09:15:45;;;;;;;3.03;1.70;;;15.20;99.90;;;;;;5077021;28;20490;-81
2024/03/14 09:18:11;;;;;;;1.50;1.40;;;15.40;99.90;;;;;;5079395;28;20831;-80
2024/03/14 09:20:38;;;;;;;0.87;0.87;;;15.60;99.90;;;;;;5078538;28;20187;-75
2024/03/14 09:23:04;;;;;;;0.40;0.30;;;15.70;99.90;;;;;;5075597;28;20212;-82
2024/03/14 09:25:30;;;;;;;5.50;4.50;;;15.70;99.90;;;;;;5078013;28;20444;-74
2024/03/14 09:27:56;;;;;;;1.27;1.03;;;15.80;99.90;;;;;;5072709;28;20512;-75
2024/03/14 09:30:22;;;;;;;0.37;0.23;;;15.80;99.90;;;;;;5079847;28;20185;-75
2024/03/14 09:32:48;;;;;;;0.30;0.20;;;16.00;99.90;;;;;;5074160;28;20464;-81
2024/03/14 09:35:25;;;;;;;0.30;0.30;;;16.20;99.90;;;;;;5068640;28;20189;-80
2024/03/14 09:37:53;;;;;;;0.30;0.20;;;16.40;99.90;;;;;;5079384;28;20211;-81
2024/03/14 09:40:21;;;;;;;0.50;0.50;;;16.40;99.90;;;;;;5077377;28;20509;-75
2024/03/14 09:42:56;;;;;;;2.53;2.27;;;16.40;99.90;;;;;;5082093;28;20516;-75
2024/03/14 09:45:23;;;;;;;0.40;0.37;;;16.30;99.90;;;;;;5085098;28;20805;-81
2024/03/14 09:47:49;;;;;;;1.97;1.87;;;16.30;99.90;;;;;;5084025;28;20744;-74
2024/03/14 09:50:20;;;;;;;1.30;1.30;;;16.30;99.90;;;;;;5083758;28;20997;-74
2024/03/14 09:52:48;;;;;;;0.33;0.30;;;16.30;99.90;;;;;;5079848;28;21003;-79
2024/03/14 09:55:20;;;;;;;0.30;0.20;;;16.40;99.90;;;;;;5079632;28;20426;-74
2024/03/14 09:57:46;;;;;;;0.30;0.20;;;16.40;99.90;;;;;;5079366;28;20535;-79
2024/03/14 10:00:19;;;;;;;2.30;2.20;;;16.50;99.90;;;;;;5083306;28;20419;-75
2024/03/14 10:02:48;;;;;;;1.53;1.53;;;16.70;99.90;;;;;;5079219;28;20874;-78
2024/03/14 10:05:19;;;;;;;0.30;0.20;;;16.90;99.90;;;;;;5080686;28;20440;-77
2024/03/14 10:07:45;;;;;;;0.47;0.40;;;17.00;99.90;;;;;;5078550;28;20478;-78
2024/03/14 10:10:12;;;;;;;1.80;0.80;;;17.10;99.90;;;;;;5078792;28;20432;-78
2024/03/14 10:12:39;;;;;;;0.40;0.30;;;17.20;99.90;;;;;;5076093;28;20448;-78
2024/03/14 10:15:16;;;;;;;0.30;0.20;;;17.40;99.90;;;;;;5078729;28;20657;-74
2024/03/14 10:17:45;;;;;;;0.30;0.20;;;17.80;99.90;;;;;;5070291;28;20475;-74
2024/03/14 10:20:14;;;;;;;0.30;0.30;;;18.10;99.90;;;;;;5078345;28;20542;-72
2024/03/14 10:22:50;;;;;;;0.30;0.20;;;18.40;99.90;;;;;;5075889;28;20453;-73
2024/03/14 10:25:17;;;;;;;0.30;0.20;;;18.60;99.90;;;;;;5071958;28;20408;-72
2024/03/14 10:27:48;;;;;;;0.30;0.20;;;18.70;99.90;;;;;;5068749;28;20475;-73
2024/03/14 10:30:16;;;;;;;0.40;0.33;;;18.80;99.90;;;;;;5069339;28;20433;-74
2024/03/14 10:32:49;;;;;;;0.30;0.20;;;18.80;99.90;;;;;;5069895;28;20592;-77
2024/03/14 10:35:19;;;;;;;0.30;0.20;;;18.80;99.90;;;;;;5074206;28;20532;-74
2024/03/14 10:37:49;;;;;;;0.30;0.20;;;18.80;99.90;;;;;;5070022;28;20524;-75
2024/03/14 10:40:27;;;;;;;0.30;0.20;;;18.70;99.90;;;;;;5069421;28;20423;-73
2024/03/14 10:42:55;;;;;;;1.17;1.17;;;18.80;99.50;;;;;;5068504;28;20484;-74
2024/03/14 10:45:22;;;;;;;0.63;0.63;;;18.80;99.00;;;;;;5072683;28;20420;-75
2024/03/14 10:47:51;;;;;;;0.30;0.20;;;18.70;98.90;;;;;;5073624;28;20487;-78
2024/03/14 10:50:19;;;;;;;0.40;0.40;;;18.80;99.20;;;;;;5071738;28;20450;-77
2024/03/14 10:52:49;;;;;;;0.30;0.20;;;18.80;98.90;;;;;;5077732;28;20449;-75
2024/03/14 10:55:17;;;;;;;1.27;1.27;;;18.80;98.80;;;;;;5073439;28;20409;-76
2024/03/14 10:57:44;;;;;;;0.30;0.20;;;18.80;98.60;;;;;;5075002;28;20433;-76
2024/03/14 11:00:21;;;;;;;0.30;0.20;;;18.50;99.90;;;;;;5071939;28;20477;-76
2024/03/14 11:02:49;;;;;;;0.50;0.50;;;18.40;99.90;;;;;;5066544;28;20491;-77
2024/03/14 11:05:22;;;;;;;0.30;0.20;;;18.20;99.90;;;;;;5066078;28;20515;-76
2024/03/14 11:07:51;;;;;;;0.40;0.30;;;18.20;99.30;;;;;;5058969;28;22415;-77
2024/03/14 11:10:28;;;;;;;0.30;0.20;;;18.20;99.30;;;;;;5066567;28;20408;-75
2024/03/14 11:13:05;;;;;;;0.30;0.30;;;18.10;99.20;;;;;;5066985;28;20464;-75
2024/03/14 11:15:36;;;;;;;0.30;0.20;;;18.00;99.60;;;;;;5072277;28;20577;-75
2024/03/14 11:18:06;;;;;;;0.30;0.20;;;17.90;98.40;;;;;;5071217;28;20523;-75
2024/03/14 11:20:32;;;;;;;0.30;0.20;;;17.80;98.30;;;;;;5068239;28;20428;-76
2024/03/14 11:23:03;;;;;;;0.30;0.20;;;17.60;98.70;;;;;;5076612;28;20459;-77
2024/03/14 11:25:32;;;;;;;0.43;0.43;;;17.50;98.40;;;;;;5079332;28;21072;-75
2024/03/14 11:28:00;;;;;;;0.50;0.50;;;17.30;98.80;;;;;;5064648;28;21027;-76
2024/03/14 11:30:26;;;;;;;0.40;0.37;;;17.10;98.80;;;;;;5068256;28;20427;-74
2024/03/14 11:32:55;;;;;;;0.30;0.20;;;17.10;99.90;;;;;;5075800;28;21000;-78
2024/03/14 11:35:38;;;;;;;3.07;1.13;;;17.00;99.90;;;;;;5066191;28;20179;-78
2024/03/14 11:38:30;;;;;;;0.80;0.80;;;17.00;99.90;;;;;;5061693;28;20565;-75
2024/03/14 11:41:02;;;;;;;0.30;0.30;;;17.00;99.90;;;;;;5066203;28;21043;-74
2024/03/14 11:43:33;;;;;;;0.30;0.20;;;16.90;99.90;;;;;;5062340;28;20458;-75
2024/03/14 11:46:00;;;;;;;2.40;2.30;;;16.90;99.60;;;;;;5073437;28;20428;-76
2024/03/14 11:48:28;;;;;;;0.30;0.30;;;16.80;99.90;;;;;;5075098;28;20508;-85
2024/03/14 11:50:58;;;;;;;0.50;0.50;;;16.80;99.70;;;;;;5073052;28;20424;-77
2024/03/14 11:53:29;;;;;;;0.30;0.20;;;16.70;99.90;;;;;;5061062;28;20804;-80
2024/03/14 11:55:56;;;;;;;0.30;0.20;;;16.70;99.90;;;;;;5076524;28;20418;-80
2024/03/14 11:58:26;;;;;;;0.30;0.20;;;16.60;99.90;;;;;;5075282;28;20991;-80
2024/03/14 12:00:52;;;;;;;3.60;1.03;;;16.60;99.90;;;;;;5069459;28;20422;-83
2024/03/14 12:03:19;;;;;;;0.30;0.20;;;16.60;99.90;;;;;;5060124;28;20496;-81
2024/03/14 12:05:53;;;;;;;0.30;0.20;;;16.60;99.90;;;;;;5067592;28;20990;-80
2024/03/14 12:08:19;;;;;;;0.30;0.20;;;16.60;99.90;;;;;;5068400;28;20486;-79
2024/03/14 12:10:54;;;;;;;0.30;0.20;;;16.60;99.90;;;;;;5073210;28;20442;-79
2024/03/14 12:13:26;;;;;;;0.53;0.53;;;16.70;99.90;;;;;;5073351;28;20284;-79
2024/03/14 12:16:02;;;;;;;0.30;0.20;;;16.70;99.90;;;;;;5072782;28;20517;-75
2024/03/14 12:18:27;;;;;;;0.30;0.20;;;16.80;99.90;;;;;;5065612;28;20499;-76
2024/03/14 12:20:53;;;;;;;0.30;0.20;;;16.80;99.90;;;;;;5063381;28;20434;-76
2024/03/14 12:23:22;;;;;;;0.30;0.30;;;16.80;99.90;;;;;;5079898;28;20201;-81
2024/03/14 12:25:54;;;;;;;1.13;1.13;;;16.80;99.90;;;;;;5067405;28;20437;-82
2024/03/14 12:28:21;;;;;;;0.30;0.20;;;16.80;99.90;;;;;;5063422;28;20458;-74
2024/03/14 12:31:00;;;;;;;0.50;0.50;;;16.80;99.90;;;;;;5057260;28;20808;-75
2024/03/14 12:33:27;;;;;;;0.30;0.20;;;16.80;99.90;;;;;;5066430;28;20457;-76
2024/03/14 12:35:54;;;;;;;0.30;0.20;;;16.90;99.90;;;;;;5062389;28;20465;-82
2024/03/14 12:38:24;;;;;;;0.30;0.20;;;17.00;99.90;;;;;;5063385;28;20506;-83
2024/03/14 12:40:53;;;;;;;0.30;0.20;;;17.10;99.90;;;;;;5066484;28;20496;-83
2024/03/14 12:43:20;;;;;;;0.70;0.67;;;17.10;99.90;;;;;;5057697;28;21200;-82
2024/03/14 12:45:47;;;;;;;0.30;0.20;;;17.20;99.90;;;;;;5057939;28;20728;-74
2024/03/14 12:48:16;;;;;;;1.27;1.17;;;17.30;99.90;;;;;;5063882;28;20543;-81
2024/03/14 12:50:42;;;;;;;0.30;0.20;;;17.40;99.90;;;;;;5058336;28;20428;-75
2024/03/14 12:53:12;;;;;;;0.30;0.20;;;17.40;99.90;;;;;;5065258;28;20480;-82